Time;durP1;ratioP1;P1;durP2;ratioP2;P2;SDS_P1;SDS_P2;PMS_P1;PMS_P2;Temp;Humidity;BMP_temperature;BMP_pressure;BME280_temperature;BME280_humidity;BME280_pressure;Samples;Min_cycle;Max_cycle;Signal;HPM_P1;HPM_P2
2021/08/11 00:02:18;;;;;;;5.60;5.15;;;17.60;99.90;;;;;;5011542;28;20172;-82
2021/08/11 00:04:43;;;;;;;7.22;4.93;;;17.60;99.90;;;;;;5012706;28;20184;-82
2021/08/11 00:07:09;;;;;;;8.35;4.80;;;17.70;99.90;;;;;;5011805;28;20195;-82
2021/08/11 00:09:35;;;;;;;4.70;4.30;;;17.70;99.90;;;;;;5011734;28;20172;-82
2021/08/11 00:12:01;;;;;;;5.90;4.47;;;17.70;99.90;;;;;;5012567;28;20580;-82
2021/08/11 00:14:26;;;;;;;5.45;4.95;;;17.60;99.90;;;;;;5011326;28;20177;-82
2021/08/11 00:16:52;;;;;;;5.35;4.60;;;17.60;99.90;;;;;;5011353;28;20283;-82
2021/08/11 00:19:18;;;;;;;4.85;4.43;;;17.50;99.90;;;;;;5011427;28;20829;-82
2021/08/11 00:21:44;;;;;;;5.07;4.68;;;17.50;99.90;;;;;;5012543;28;20184;-82
2021/08/11 00:24:10;;;;;;;5.45;4.95;;;17.40;99.90;;;;;;5011250;28;20528;-82
2021/08/11 00:26:35;;;;;;;5.50;4.95;;;17.40;99.90;;;;;;5012468;28;20189;-82
2021/08/11 00:29:01;;;;;;;7.00;5.05;;;17.60;99.90;;;;;;5011606;28;20168;-82
2021/08/11 00:31:27;;;;;;;6.10;5.57;;;17.60;99.90;;;;;;5027792;28;20180;-84
2021/08/11 00:33:52;;;;;;;4.97;4.57;;;17.70;99.90;;;;;;5011723;28;20187;-84
2021/08/11 00:36:18;;;;;;;6.47;4.78;;;17.60;99.90;;;;;;5012672;28;20231;-84
2021/08/11 00:38:43;;;;;;;4.60;3.83;;;17.70;99.90;;;;;;5013289;28;20246;-83
2021/08/11 00:41:09;;;;;;;8.63;4.50;;;17.60;99.90;;;;;;5011375;28;20212;-85
2021/08/11 00:43:35;;;;;;;6.70;4.38;;;17.60;99.90;;;;;;5013381;28;20202;-84
2021/08/11 00:46:00;;;;;;;7.05;4.63;;;17.50;99.90;;;;;;5018052;28;20733;-83
2021/08/11 00:48:27;;;;;;;11.45;4.57;;;17.70;99.90;;;;;;5017480;28;20172;-83
2021/08/11 00:50:53;;;;;;;5.40;4.90;;;17.80;99.90;;;;;;5019100;28;20174;-83
2021/08/11 00:53:23;;;;;;;8.00;4.43;;;17.80;99.90;;;;;;5019203;28;20164;-82
2021/08/11 00:55:50;;;;;;;5.10;4.60;;;18.00;99.90;;;;;;5017555;28;20188;-83
2021/08/11 00:58:19;;;;;;;5.07;4.68;;;18.10;99.90;;;;;;5019361;28;20530;-84
2021/08/11 01:00:47;;;;;;;5.38;4.90;;;18.10;99.90;;;;;;5019437;28;20668;-85
2021/08/11 01:03:17;;;;;;;6.05;5.10;;;18.10;99.90;;;;;;5019432;28;20168;-84
2021/08/11 01:05:45;;;;;;;12.90;5.13;;;18.00;99.90;;;;;;5017666;28;20208;-83
2021/08/11 01:08:12;;;;;;;8.23;6.35;;;18.00;99.90;;;;;;5018071;28;20219;-85
2021/08/11 01:10:39;;;;;;;12.45;7.68;;;18.00;99.90;;;;;;5017994;28;20602;-84
2021/08/11 01:13:05;;;;;;;10.80;7.95;;;18.10;99.90;;;;;;5017661;28;20168;-84
2021/08/11 01:15:30;;;;;;;22.02;8.85;;;18.10;99.90;;;;;;5017775;28;20200;-84
2021/08/11 01:17:56;;;;;;;12.63;8.27;;;18.20;99.90;;;;;;5017915;28;20156;-84
2021/08/11 01:20:22;;;;;;;11.57;8.93;;;18.10;99.90;;;;;;5018967;28;20239;-85
2021/08/11 01:22:56;;;;;;;13.18;8.70;;;18.10;99.90;;;;;;5017975;28;20172;-85
2021/08/11 01:25:43;;;;;;;13.77;8.80;;;18.00;99.90;;;;;;5018862;28;20192;-85
2021/08/11 01:28:46;;;;;;;10.48;8.02;;;18.00;99.90;;;;;;5017934;28;20176;-83
2021/08/11 01:31:15;;;;;;;8.48;7.50;;;18.10;99.90;;;;;;5018969;28;20226;-84
2021/08/11 01:34:03;;;;;;;9.60;8.07;;;18.00;99.90;;;;;;5017338;28;20192;-80
2021/08/11 01:36:41;;;;;;;10.70;7.68;;;18.00;99.90;;;;;;5017272;28;20192;-83
2021/08/11 01:39:14;;;;;;;11.13;7.18;;;18.10;99.90;;;;;;5017311;28;20188;-85
2021/08/11 01:41:45;;;;;;;8.38;7.30;;;18.10;99.90;;;;;;5017321;28;20180;-83
2021/08/11 01:44:12;;;;;;;13.00;7.30;;;18.10;99.90;;;;;;5017498;28;20563;-83
2021/08/11 01:46:42;;;;;;;10.32;7.47;;;18.00;99.90;;;;;;5018534;28;20714;-82
2021/08/11 01:49:11;;;;;;;9.50;7.28;;;17.90;99.90;;;;;;5018699;28;20176;-82
2021/08/11 01:51:40;;;;;;;11.02;7.10;;;17.90;99.90;;;;;;5018879;28;20708;-84
2021/08/11 01:54:08;;;;;;;9.18;6.60;;;18.00;99.90;;;;;;5018625;28;20701;-82
2021/08/11 01:56:35;;;;;;;11.80;6.75;;;18.10;99.90;;;;;;5015491;28;20263;-84
2021/08/11 01:59:03;;;;;;;9.15;6.75;;;18.30;99.90;;;;;;5015663;28;20251;-85
2021/08/11 02:01:29;;;;;;;7.40;6.70;;;18.30;99.90;;;;;;5014253;28;20727;-83
2021/08/11 02:03:55;;;;;;;9.13;7.53;;;18.30;99.90;;;;;;5014053;28;20182;-84
2021/08/11 02:06:20;;;;;;;10.45;6.28;;;18.40;99.90;;;;;;5014050;28;20188;-84
2021/08/11 02:08:47;;;;;;;9.63;7.32;;;18.20;99.90;;;;;;5014031;28;20168;-84
2021/08/11 02:11:14;;;;;;;15.73;6.88;;;18.20;99.90;;;;;;5014153;28;20548;-84
2021/08/11 02:13:40;;;;;;;15.48;7.05;;;18.10;99.90;;;;;;5014097;28;20169;-83
2021/08/11 02:16:06;;;;;;;8.20;7.40;;;18.10;99.90;;;;;;5014259;28;20188;-84
2021/08/11 02:18:32;;;;;;;8.82;7.82;;;18.10;99.90;;;;;;5016104;28;20164;-82
2021/08/11 02:20:58;;;;;;;11.57;6.72;;;17.80;99.90;;;;;;5020050;28;20216;-84
2021/08/11 02:23:23;;;;;;;8.13;7.40;;;17.60;99.90;;;;;;5014072;28;20196;-84
2021/08/11 02:25:56;;;;;;;8.00;7.07;;;17.70;99.90;;;;;;5034123;28;20200;-85
2021/08/11 02:28:41;;;;;;;8.52;7.72;;;17.60;99.90;;;;;;5026200;28;20160;-82
2021/08/11 02:31:31;;;;;;;7.85;7.10;;;17.50;99.90;;;;;;5031356;28;20199;-83
2021/08/11 02:34:08;;;;;;;8.77;7.93;;;17.40;99.90;;;;;;5018038;28;20177;-82
2021/08/11 02:36:42;;;;;;;8.65;7.95;;;17.30;99.90;;;;;;5015232;28;20262;-83
2021/08/11 02:39:13;;;;;;;9.40;8.50;;;17.30;99.90;;;;;;5014443;28;20206;-82
2021/08/11 02:41:46;;;;;;;9.38;8.48;;;17.30;99.90;;;;;;5015001;28;20183;-82
2021/08/11 02:44:31;;;;;;;8.20;7.40;;;17.30;99.90;;;;;;5014751;28;20168;-82
2021/08/11 02:46:57;;;;;;;8.52;7.55;;;17.30;99.90;;;;;;5014724;28;20168;-83
2021/08/11 02:49:30;;;;;;;8.70;7.88;;;17.20;99.90;;;;;;5014653;28;20295;-82
2021/08/11 02:51:58;;;;;;;9.52;7.97;;;17.40;99.90;;;;;;5013173;28;20180;-83
2021/08/11 02:54:26;;;;;;;11.25;7.22;;;17.50;99.90;;;;;;5013150;28;20168;-83
2021/08/11 02:56:54;;;;;;;15.85;7.60;;;17.40;99.90;;;;;;5012879;28;20239;-80
2021/08/11 02:59:22;;;;;;;10.55;7.97;;;17.40;99.90;;;;;;5015072;28;20251;-83
2021/08/11 03:01:49;;;;;;;10.13;6.72;;;17.40;99.90;;;;;;5012912;28;20168;-81
2021/08/11 03:04:15;;;;;;;9.25;7.18;;;17.30;99.90;;;;;;5013995;28;20200;-82
2021/08/11 03:06:42;;;;;;;7.57;6.68;;;17.30;99.90;;;;;;5012738;28;20196;-81
2021/08/11 03:09:09;;;;;;;7.47;6.80;;;17.20;99.90;;;;;;5014577;28;20247;-82
2021/08/11 03:11:36;;;;;;;10.13;7.97;;;17.10;99.90;;;;;;5012481;28;20168;-82
2021/08/11 03:14:04;;;;;;;10.18;6.63;;;17.30;99.90;;;;;;5014114;28;20177;-83
2021/08/11 03:16:30;;;;;;;7.05;6.43;;;17.20;99.90;;;;;;5012621;28;20192;-82
2021/08/11 03:18:56;;;;;;;7.13;6.30;;;17.10;99.90;;;;;;5012287;28;20680;-82
2021/08/11 03:21:23;;;;;;;6.82;5.93;;;16.90;99.90;;;;;;5029052;28;20263;-82
2021/08/11 03:23:48;;;;;;;6.78;6.00;;;16.90;99.90;;;;;;5012632;28;20169;-82
2021/08/11 03:26:14;;;;;;;7.47;6.80;;;16.90;99.90;;;;;;5012471;28;20192;-82
2021/08/11 03:28:40;;;;;;;7.63;6.93;;;16.90;99.90;;;;;;5013324;28;20532;-83
2021/08/11 03:31:05;;;;;;;10.35;8.15;;;16.90;99.90;;;;;;5012474;28;20210;-83
2021/08/11 03:33:31;;;;;;;11.10;8.50;;;16.90;99.90;;;;;;5013388;28;20165;-82
2021/08/11 03:35:57;;;;;;;17.50;8.52;;;16.90;99.90;;;;;;5028708;28;20192;-82
2021/08/11 03:38:22;;;;;;;13.85;9.02;;;17.00;99.90;;;;;;5013639;28;20644;-82
2021/08/11 03:40:48;;;;;;;11.35;8.27;;;16.90;99.90;;;;;;5012242;28;20273;-85
2021/08/11 03:43:14;;;;;;;9.75;8.77;;;17.00;99.90;;;;;;5011718;28;20177;-85
2021/08/11 03:45:41;;;;;;;11.52;8.75;;;17.00;99.90;;;;;;5013587;28;20207;-84
2021/08/11 03:48:06;;;;;;;11.18;9.25;;;17.00;99.90;;;;;;5028938;28;20164;-84
2021/08/11 03:50:32;;;;;;;13.02;9.55;;;16.90;99.90;;;;;;5012341;28;20175;-84
2021/08/11 03:52:57;;;;;;;9.57;8.70;;;16.90;99.90;;;;;;5011926;28;20575;-84
2021/08/11 03:55:29;;;;;;;12.10;9.00;;;16.70;99.90;;;;;;5028155;28;20189;-84
2021/08/11 03:57:55;;;;;;;9.43;7.53;;;16.50;99.90;;;;;;5012384;28;20173;-82
2021/08/11 04:00:20;;;;;;;8.50;7.38;;;16.50;99.90;;;;;;5012108;28;20214;-82
2021/08/11 04:02:46;;;;;;;8.60;7.70;;;16.50;99.90;;;;;;5011702;28;20172;-84
2021/08/11 04:05:12;;;;;;;9.35;7.50;;;16.50;99.90;;;;;;5011739;28;20267;-83
2021/08/11 04:07:37;;;;;;;8.30;7.40;;;16.50;99.90;;;;;;5012196;28;20169;-84
2021/08/11 04:10:08;;;;;;;10.52;7.75;;;16.40;99.90;;;;;;5010404;28;20173;-84
2021/08/11 04:12:34;;;;;;;10.18;7.50;;;16.50;99.90;;;;;;5010709;28;20655;-83
2021/08/11 04:14:59;;;;;;;7.32;6.65;;;16.60;99.90;;;;;;5009399;28;20196;-82
2021/08/11 04:17:25;;;;;;;9.18;6.70;;;16.50;99.90;;;;;;5012231;28;20164;-83
2021/08/11 04:19:51;;;;;;;7.50;6.57;;;16.40;99.90;;;;;;5012221;28;20203;-81
2021/08/11 04:22:17;;;;;;;10.70;8.10;;;16.50;99.90;;;;;;5012694;28;20191;-80
2021/08/11 04:24:43;;;;;;;9.75;7.68;;;16.30;99.90;;;;;;5012569;28;20195;-80
2021/08/11 04:27:08;;;;;;;10.95;8.18;;;16.00;99.90;;;;;;5012853;28;20252;-80
2021/08/11 04:29:34;;;;;;;10.68;8.20;;;16.10;99.90;;;;;;5011559;28;20238;-80
2021/08/11 04:32:00;;;;;;;8.75;7.95;;;16.20;99.90;;;;;;5011608;28;20678;-80
2021/08/11 04:34:25;;;;;;;10.77;8.45;;;16.20;99.90;;;;;;5011728;28;20180;-80
2021/08/11 04:36:51;;;;;;;11.23;7.50;;;16.20;99.90;;;;;;5011499;28;20184;-80
2021/08/11 04:39:17;;;;;;;11.35;8.50;;;16.20;99.90;;;;;;5011294;28;20198;-81
2021/08/11 04:41:43;;;;;;;8.35;7.32;;;16.10;99.90;;;;;;5012958;28;20216;-81
2021/08/11 04:44:10;;;;;;;10.40;8.38;;;16.30;99.90;;;;;;5012364;28;20227;-81
2021/08/11 04:46:42;;;;;;;9.93;7.53;;;16.30;99.90;;;;;;5027306;28;20192;-81
2021/08/11 04:49:08;;;;;;;9.30;7.63;;;16.40;99.90;;;;;;5011355;28;20268;-81
2021/08/11 04:51:34;;;;;;;7.97;7.25;;;16.40;99.90;;;;;;5027481;28;20212;-81
2021/08/11 04:54:00;;;;;;;7.85;7.05;;;16.50;99.90;;;;;;5010971;28;20532;-81
2021/08/11 04:56:26;;;;;;;8.75;7.18;;;16.50;99.90;;;;;;5012056;28;20196;-81
2021/08/11 04:58:52;;;;;;;9.32;7.07;;;16.60;99.90;;;;;;5027450;28;20223;-81
2021/08/11 05:01:17;;;;;;;8.85;6.15;;;16.70;99.90;;;;;;5011122;28;20291;-81
2021/08/11 05:03:43;;;;;;;314.55;23.75;;;16.50;99.90;;;;;;5011077;28;20172;-81
2021/08/11 05:06:09;;;;;;;406.95;32.00;;;16.40;99.90;;;;;;5011078;28;20648;-81
2021/08/11 05:08:36;;;;;;;508.52;41.17;;;16.40;99.90;;;;;;5011283;28;20243;-83
2021/08/11 05:11:02;;;;;;;432.48;41.75;;;16.50;99.90;;;;;;5010547;28;20254;-80
2021/08/11 05:13:28;;;;;;;339.88;30.67;;;16.50;99.90;;;;;;5011898;28;20625;-81
2021/08/11 05:15:54;;;;;;;99.15;14.00;;;16.60;99.90;;;;;;5011597;28;20188;-81
2021/08/11 05:18:20;;;;;;;74.75;12.55;;;16.60;99.90;;;;;;5012442;28;20168;-81
2021/08/11 05:20:46;;;;;;;19.75;8.00;;;16.40;99.90;;;;;;5012298;28;20805;-80
2021/08/11 05:23:12;;;;;;;43.92;9.48;;;16.40;99.90;;;;;;5012191;28;20173;-81
2021/08/11 05:25:38;;;;;;;39.70;9.23;;;16.40;99.90;;;;;;5012229;28;20263;-84
2021/08/11 05:28:04;;;;;;;19.77;6.70;;;16.50;99.90;;;;;;5011180;28;20169;-82
2021/08/11 05:30:29;;;;;;;35.88;7.40;;;16.50;99.90;;;;;;5011185;28;20260;-83
2021/08/11 05:32:55;;;;;;;12.40;6.45;;;16.50;99.90;;;;;;5014738;28;20270;-83
2021/08/11 05:35:21;;;;;;;11.90;6.20;;;16.60;99.90;;;;;;5014616;28;20192;-82
2021/08/11 05:37:46;;;;;;;8.90;5.93;;;16.60;99.90;;;;;;5031169;28;20234;-81
2021/08/11 05:40:18;;;;;;;289.00;29.08;;;16.60;99.90;;;;;;5015360;28;20262;-81
2021/08/11 05:42:45;;;;;;;143.48;16.08;;;16.50;99.90;;;;;;5015752;28;20173;-82
2021/08/11 05:45:10;;;;;;;161.75;18.48;;;16.70;99.90;;;;;;5014549;28;20260;-82
2021/08/11 05:47:36;;;;;;;88.05;12.85;;;16.90;99.90;;;;;;5014161;28;20180;-81
2021/08/11 05:50:03;;;;;;;30.60;8.88;;;17.10;99.90;;;;;;5013731;28;20667;-80
2021/08/11 05:52:29;;;;;;;14.25;6.80;;;17.20;99.90;;;;;;5015139;28;20191;-80
2021/08/11 05:54:55;;;;;;;17.08;7.07;;;17.20;99.90;;;;;;5030348;28;20656;-80
2021/08/11 05:57:20;;;;;;;8.02;7.03;;;17.30;99.90;;;;;;5030430;28;20175;-81
2021/08/11 05:59:47;;;;;;;14.98;7.25;;;17.30;99.90;;;;;;5015437;28;20196;-81
2021/08/11 06:02:12;;;;;;;9.25;7.18;;;17.50;99.90;;;;;;5013845;28;20181;-80
2021/08/11 06:04:38;;;;;;;21.65;7.45;;;17.50;99.90;;;;;;5030273;28;20179;-80
2021/08/11 06:07:04;;;;;;;12.43;6.65;;;17.30;99.90;;;;;;5030267;28;20173;-80
2021/08/11 06:09:30;;;;;;;8.27;6.43;;;17.30;99.90;;;;;;5013532;28;20169;-80
2021/08/11 06:11:56;;;;;;;12.15;6.85;;;17.30;99.90;;;;;;5014653;28;20252;-80
2021/08/11 06:14:21;;;;;;;11.75;6.88;;;17.40;99.90;;;;;;5013640;28;20222;-81
2021/08/11 06:16:49;;;;;;;8.15;6.20;;;17.50;99.90;;;;;;5013263;28;20565;-81
2021/08/11 06:19:15;;;;;;;12.55;8.05;;;17.50;99.90;;;;;;5010866;28;20168;-81
2021/08/11 06:21:41;;;;;;;7.45;6.53;;;17.50;99.90;;;;;;5002730;28;20223;-81
2021/08/11 06:24:07;;;;;;;11.48;7.47;;;17.60;99.90;;;;;;4995059;28;20231;-81
2021/08/11 06:26:34;;;;;;;10.35;6.45;;;17.60;99.90;;;;;;5010450;28;20676;-82
2021/08/11 06:29:00;;;;;;;7.95;5.95;;;17.70;99.90;;;;;;4995145;28;20170;-83
2021/08/11 06:31:26;;;;;;;13.80;7.05;;;17.70;99.90;;;;;;4993290;28;20169;-82
2021/08/11 06:33:53;;;;;;;12.95;6.97;;;17.70;99.90;;;;;;4996093;28;20227;-80
2021/08/11 06:36:19;;;;;;;8.63;6.30;;;17.80;99.90;;;;;;4998831;28;20200;-84
2021/08/11 06:38:45;;;;;;;17.10;7.40;;;17.80;99.90;;;;;;5045124;23;20203;-81
2021/08/11 06:41:15;;;;;;;9.30;6.90;;;17.90;99.90;;;;;;5053198;28;20213;-80
2021/08/11 06:43:45;;;;;;;7.20;6.32;;;18.00;99.90;;;;;;5053848;28;20159;-81
2021/08/11 06:46:11;;;;;;;7.93;6.43;;;18.10;99.90;;;;;;5050923;28;20252;-81
2021/08/11 06:48:37;;;;;;;10.52;6.70;;;18.20;99.90;;;;;;5053706;28;20175;-81
2021/08/11 06:51:05;;;;;;;7.88;6.32;;;17.90;99.90;;;;;;5053149;28;20689;-80
2021/08/11 06:53:31;;;;;;;7.85;6.00;;;18.10;99.90;;;;;;5053604;28;20591;-81
2021/08/11 06:55:57;;;;;;;10.10;5.60;;;18.20;99.90;;;;;;5054321;28;20183;-82
2021/08/11 06:58:22;;;;;;;14.38;6.10;;;18.50;99.90;;;;;;5054592;28;20174;-81
2021/08/11 07:00:48;;;;;;;9.98;5.22;;;18.90;99.90;;;;;;5054000;28;20210;-81
2021/08/11 07:03:13;;;;;;;5.80;5.18;;;19.10;99.90;;;;;;5053751;28;20225;-82
2021/08/11 07:05:39;;;;;;;7.40;5.22;;;19.10;99.90;;;;;;5042957;28;20192;-81
2021/08/11 07:08:05;;;;;;;11.75;5.82;;;19.00;99.90;;;;;;5033244;28;20643;-81
2021/08/11 07:10:30;;;;;;;12.15;5.00;;;18.90;99.90;;;;;;5031887;28;20168;-82
2021/08/11 07:12:56;;;;;;;9.32;5.22;;;18.90;99.90;;;;;;5030988;28;20311;-82
2021/08/11 07:15:22;;;;;;;5.78;4.28;;;18.70;99.90;;;;;;5032818;28;20663;-81
2021/08/11 07:17:57;;;;;;;7.45;4.30;;;18.80;99.90;;;;;;5032657;28;20168;-81
2021/08/11 07:20:24;;;;;;;12.27;4.05;;;18.80;99.90;;;;;;5032966;28;20203;-82
2021/08/11 07:22:49;;;;;;;6.93;3.47;;;18.90;99.90;;;;;;5032582;28;20160;-82
2021/08/11 07:25:15;;;;;;;13.52;4.05;;;19.10;99.90;;;;;;5030212;28;20196;-82
2021/08/11 07:27:42;;;;;;;5.90;3.08;;;19.40;99.90;;;;;;5031400;28;20160;-82
2021/08/11 07:30:08;;;;;;;6.85;3.17;;;20.10;99.90;;;;;;5032398;28;20191;-81
2021/08/11 07:32:34;;;;;;;3.95;3.08;;;21.10;99.90;;;;;;5031299;28;20179;-82
2021/08/11 07:35:04;;;;;;;6.07;3.20;;;21.70;99.90;;;;;;5038630;28;20199;-83
2021/08/11 07:37:30;;;;;;;4.22;2.80;;;21.70;99.90;;;;;;5052483;28;20182;-82
2021/08/11 07:39:57;;;;;;;7.97;3.70;;;21.80;99.90;;;;;;5050345;28;20211;-82
2021/08/11 07:42:22;;;;;;;6.25;2.97;;;21.60;99.90;;;;;;5051649;28;20178;-81
2021/08/11 07:44:48;;;;;;;3.95;2.90;;;21.30;99.90;;;;;;5049372;28;20179;-80
2021/08/11 07:47:14;;;;;;;4.72;3.10;;;21.30;99.90;;;;;;5031703;28;20168;-81
2021/08/11 07:49:39;;;;;;;3.17;2.42;;;21.20;99.90;;;;;;5031878;28;20562;-81
2021/08/11 07:52:05;;;;;;;4.85;2.38;;;21.20;99.90;;;;;;5049130;28;20171;-82
2021/08/11 07:54:31;;;;;;;4.60;2.70;;;21.00;99.90;;;;;;5062867;28;20166;-83
2021/08/11 07:56:57;;;;;;;4.70;2.35;;;20.70;99.90;;;;;;5075503;28;20187;-84
2021/08/11 07:59:22;;;;;;;7.00;2.33;;;20.60;99.90;;;;;;5074620;28;20195;-86
2021/08/11 08:01:48;;;;;;;4.05;2.42;;;20.30;99.90;;;;;;5070426;28;20225;-83
2021/08/11 08:04:13;;;;;;;3.38;1.92;;;20.40;99.90;;;;;;5051398;28;20178;-84
2021/08/11 08:06:39;;;;;;;4.20;2.08;;;20.30;99.90;;;;;;5030195;28;20199;-83
2021/08/11 08:09:05;;;;;;;6.80;2.20;;;20.40;99.90;;;;;;5032938;28;20171;-80
2021/08/11 08:11:30;;;;;;;2.75;1.95;;;20.40;99.90;;;;;;5032238;28;20172;-81
2021/08/11 08:13:56;;;;;;;5.10;2.20;;;20.40;99.90;;;;;;5032350;28;20172;-82
2021/08/11 08:16:22;;;;;;;3.58;2.30;;;20.60;99.90;;;;;;5031501;28;20200;-83
2021/08/11 08:18:48;;;;;;;4.93;1.85;;;20.60;99.90;;;;;;5030863;28;20271;-83
2021/08/11 08:21:14;;;;;;;2.60;2.40;;;20.80;99.90;;;;;;5032258;28;20610;-82
2021/08/11 08:23:41;;;;;;;2.40;1.88;;;20.90;99.90;;;;;;5032267;28;20169;-82
2021/08/11 08:26:06;;;;;;;3.42;2.25;;;21.20;99.90;;;;;;5031074;28;20226;-82
2021/08/11 08:28:32;;;;;;;2.58;2.13;;;21.10;99.90;;;;;;5030759;28;20163;-83
2021/08/11 08:30:58;;;;;;;9.90;1.70;;;21.30;99.90;;;;;;5033683;28;20698;-84
2021/08/11 08:33:23;;;;;;;4.03;2.15;;;21.30;99.90;;;;;;5031988;28;20179;-82
2021/08/11 08:35:49;;;;;;;5.38;2.13;;;21.50;99.90;;;;;;5031578;28;20282;-83
2021/08/11 08:38:18;;;;;;;2.28;2.00;;;21.50;99.90;;;;;;5032527;28;20273;-82
2021/08/11 08:40:46;;;;;;;4.25;1.70;;;21.60;99.90;;;;;;5031910;28;20211;-87
2021/08/11 08:43:12;;;;;;;2.78;2.22;;;21.60;99.90;;;;;;5032533;28;20257;-85
2021/08/11 08:45:42;;;;;;;2.65;1.80;;;21.80;99.90;;;;;;5032462;28;20759;-87
2021/08/11 08:48:09;;;;;;;4.32;2.40;;;21.80;99.90;;;;;;5032616;28;20191;-86
2021/08/11 08:50:35;;;;;;;2.22;1.92;;;21.70;99.90;;;;;;5032011;28;20628;-86
2021/08/11 08:53:03;;;;;;;4.07;2.22;;;21.70;99.90;;;;;;5033093;28;20170;-85
2021/08/11 08:55:29;;;;;;;3.17;1.67;;;21.80;99.90;;;;;;5031833;28;20275;-85
2021/08/11 08:57:55;;;;;;;3.15;2.10;;;21.90;99.90;;;;;;5032061;28;20175;-85
2021/08/11 09:00:20;;;;;;;4.85;2.20;;;21.60;99.90;;;;;;5031953;28;20215;-85
2021/08/11 09:02:46;;;;;;;3.42;2.33;;;21.90;99.90;;;;;;5031920;28;20175;-83
2021/08/11 09:05:12;;;;;;;2.42;1.88;;;21.90;99.90;;;;;;5032540;28;20219;-84
2021/08/11 09:07:47;;;;;;;3.35;1.80;;;22.10;99.90;;;;;;5037079;28;20160;-84
2021/08/11 09:10:25;;;;;;;3.83;2.00;;;22.40;99.90;;;;;;5036438;28;20168;-84
2021/08/11 09:12:59;;;;;;;3.60;2.13;;;22.60;99.90;;;;;;5036378;28;20267;-84
2021/08/11 09:15:36;;;;;;;2.08;1.92;;;22.40;99.90;;;;;;5036063;28;20246;-84
2021/08/11 09:18:17;;;;;;;4.25;1.90;;;22.20;99.90;;;;;;5047888;28;20183;-84
2021/08/11 09:20:48;;;;;;;2.78;2.08;;;22.50;99.90;;;;;;5061106;28;20226;-84
2021/08/11 09:23:15;;;;;;;2.35;1.90;;;22.80;99.90;;;;;;5061138;28;20171;-83
2021/08/11 09:25:57;;;;;;;3.78;1.98;;;22.70;99.90;;;;;;5059978;28;20230;-81
2021/08/11 09:28:22;;;;;;;3.47;2.15;;;23.10;99.90;;;;;;5058349;28;20176;-84
2021/08/11 09:30:48;;;;;;;2.58;1.90;;;23.40;99.90;;;;;;5054605;28;20582;-83
2021/08/11 09:33:14;;;;;;;3.05;2.10;;;23.50;99.90;;;;;;5057611;28;20148;-87
2021/08/11 09:35:39;;;;;;;2.63;1.80;;;23.50;99.90;;;;;;5052303;28;20188;-87
2021/08/11 09:38:13;;;;;;;6.38;2.42;;;23.20;99.90;;;;;;5056214;28;20215;-85
2021/08/11 09:40:40;;;;;;;3.28;1.83;;;23.00;99.90;;;;;;5226060;22;20218;-90
2021/08/11 09:43:08;;;;;;;3.45;2.25;;;23.00;99.90;;;;;;5043920;28;20263;-83
2021/08/11 09:45:55;;;;;;;3.13;2.05;;;22.90;99.90;;;;;;5037219;28;20179;-84
2021/08/11 09:48:39;;;;;;;2.50;2.17;;;22.80;99.90;;;;;;5038820;28;20163;-86
2021/08/11 09:51:06;;;;;;;6.05;2.30;;;22.90;99.90;;;;;;5035982;28;20164;-90
2021/08/11 09:53:37;;;;;;;6.20;2.13;;;22.70;99.90;;;;;;5035763;28;20212;-87
2021/08/11 09:56:07;;;;;;;4.32;2.40;;;22.60;99.90;;;;;;5035826;28;20184;-88
2021/08/11 09:58:37;;;;;;;2.40;2.20;;;22.40;99.90;;;;;;5035893;28;20607;-86
2021/08/11 10:01:06;;;;;;;5.35;2.00;;;22.20;99.90;;;;;;5036059;28;20231;-86
2021/08/11 10:03:33;;;;;;;2.67;2.00;;;22.30;99.90;;;;;;5035699;28;20172;-85
2021/08/11 10:06:00;;;;;;;4.90;2.50;;;22.40;99.90;;;;;;5037836;28;20563;-84
2021/08/11 10:08:30;;;;;;;3.47;2.53;;;22.50;99.90;;;;;;5039458;28;20188;-90
2021/08/11 10:10:56;;;;;;;2.55;2.35;;;22.70;99.90;;;;;;5037459;28;20174;-89
2021/08/11 10:13:24;;;;;;;1.92;1.83;;;22.80;99.90;;;;;;5036745;28;20175;-89
2021/08/11 10:15:50;;;;;;;3.30;2.30;;;23.10;99.90;;;;;;5038212;28;20180;-87
2021/08/11 10:18:25;;;;;;;5.30;2.15;;;23.00;99.90;;;;;;5036508;28;20164;-87
2021/08/11 10:20:55;;;;;;;3.10;2.25;;;22.80;99.90;;;;;;5036426;28;20198;-88
2021/08/11 10:23:20;;;;;;;2.58;2.10;;;22.90;99.90;;;;;;5037438;28;20167;-88
2021/08/11 10:25:50;;;;;;;4.07;2.38;;;23.10;99.90;;;;;;5035530;28;20559;-88
2021/08/11 10:28:21;;;;;;;3.15;1.98;;;23.30;99.90;;;;;;5035762;28;20217;-88
2021/08/11 10:30:49;;;;;;;2.08;1.60;;;23.60;99.90;;;;;;5035506;28;20167;-88
2021/08/11 10:33:16;;;;;;;6.53;2.13;;;23.80;99.90;;;;;;5035270;28;20247;-88
2021/08/11 10:35:44;;;;;;;4.53;2.03;;;24.00;99.90;;;;;;5035137;28;20187;-88
2021/08/11 10:38:12;;;;;;;2.80;1.85;;;23.90;99.90;;;;;;5035167;28;20180;-87
2021/08/11 10:40:40;;;;;;;3.70;2.20;;;23.90;99.90;;;;;;5035027;28;20682;-88
2021/08/11 10:43:06;;;;;;;3.95;1.80;;;23.80;99.90;;;;;;5036336;28;20263;-88
2021/08/11 10:45:33;;;;;;;6.82;2.00;;;23.90;99.90;;;;;;5053903;28;20199;-90
2021/08/11 10:48:00;;;;;;;2.88;1.85;;;24.00;99.90;;;;;;5059770;28;20193;-91
2021/08/11 10:50:42;;;;;;;3.25;2.20;;;23.90;99.90;;;;;;5059048;28;20171;-87
2021/08/11 10:53:09;;;;;;;2.83;1.77;;;23.70;99.90;;;;;;5057012;28;20176;-87
2021/08/11 10:55:43;;;;;;;9.10;2.08;;;23.50;99.90;;;;;;5047212;28;20644;-90
2021/08/11 10:58:10;;;;;;;2.30;2.10;;;23.30;99.90;;;;;;5037175;28;20474;-86
2021/08/11 11:00:40;;;;;;;4.25;2.22;;;23.50;99.90;;;;;;5036069;28;20257;-86
2021/08/11 11:03:06;;;;;;;3.28;1.90;;;23.40;99.90;;;;;;5034769;28;20225;-86
2021/08/11 11:05:33;;;;;;;3.75;2.17;;;23.20;99.90;;;;;;5035863;28;20231;-85
2021/08/11 11:08:15;;;;;;;2.40;2.20;;;23.40;99.90;;;;;;5034465;28;20181;-86
2021/08/11 11:10:43;;;;;;;2.83;2.30;;;23.30;99.90;;;;;;5034611;28;20608;-86
2021/08/11 11:13:29;;;;;;;3.75;1.80;;;23.00;99.90;;;;;;5034330;28;20259;-86
2021/08/11 11:15:55;;;;;;;2.17;1.80;;;23.00;99.90;;;;;;5033132;28;20571;-85
2021/08/11 11:18:22;;;;;;;3.17;2.40;;;22.90;99.90;;;;;;5033149;28;20172;-86
2021/08/11 11:20:57;;;;;;;5.18;2.22;;;22.80;99.90;;;;;;5033375;28;20207;-85
2021/08/11 11:23:36;;;;;;;3.30;2.13;;;22.70;99.90;;;;;;5033610;28;20178;-86
2021/08/11 11:26:15;;;;;;;2.58;2.10;;;22.80;99.90;;;;;;5034365;28;20198;-87
2021/08/11 11:28:59;;;;;;;2.40;2.20;;;22.70;99.90;;;;;;5033162;28;20182;-84
2021/08/11 11:31:34;;;;;;;5.97;2.33;;;22.80;99.90;;;;;;5031978;28;20271;-87
2021/08/11 11:34:21;;;;;;;3.40;2.33;;;22.90;99.90;;;;;;5034133;28;20168;-85
2021/08/11 11:36:56;;;;;;;4.85;2.40;;;22.90;99.90;;;;;;5034248;28;20188;-87
2021/08/11 11:39:24;;;;;;;2.35;1.80;;;22.90;99.90;;;;;;5034160;28;20178;-87
2021/08/11 11:42:22;;;;;;;4.10;2.25;;;22.60;99.90;;;;;;5034958;28;20218;-87
2021/08/11 11:44:58;;;;;;;3.35;2.55;;;22.80;99.90;;;;;;5033692;28;20259;-85
2021/08/11 11:47:43;;;;;;;2.53;2.10;;;22.80;99.90;;;;;;5028053;28;20179;-87
2021/08/11 11:52:59;;;;;;;3.45;2.17;;;23.30;99.90;;;;;;5033069;28;20179;-82
2021/08/11 11:55:41;;;;;;;2.55;1.75;;;23.40;99.90;;;;;;5033433;28;20701;-87
2021/08/11 11:58:13;;;;;;;4.50;1.83;;;23.50;99.90;;;;;;5032883;28;20262;-89
2021/08/11 12:00:40;;;;;;;4.10;2.42;;;23.60;99.90;;;;;;5033406;28;20234;-89
2021/08/11 12:03:06;;;;;;;2.17;1.98;;;23.90;99.90;;;;;;5034129;28;20171;-84
2021/08/11 12:05:49;;;;;;;12.23;3.13;;;24.00;99.90;;;;;;5032763;28;20291;-82
2021/08/11 12:08:17;;;;;;;3.03;2.30;;;23.70;99.90;;;;;;5031909;28;20171;-86
2021/08/11 12:10:46;;;;;;;8.15;1.80;;;23.60;99.90;;;;;;5033041;28;20214;-89
2021/08/11 12:13:12;;;;;;;5.05;2.05;;;23.40;99.90;;;;;;5032890;28;20191;-91
2021/08/11 12:15:40;;;;;;;2.30;1.52;;;23.50;99.90;;;;;;5027949;28;20219;-89
2021/08/11 12:18:25;;;;;;;2.47;1.80;;;23.40;99.90;;;;;;5032171;28;20231;-85
2021/08/11 12:20:54;;;;;;;2.50;1.73;;;23.20;99.90;;;;;;5031115;28;20207;-83
2021/08/11 12:23:28;;;;;;;3.83;2.08;;;23.10;99.90;;;;;;5031248;28;20217;-82
2021/08/11 12:26:04;;;;;;;3.30;1.90;;;23.10;99.90;;;;;;5031612;28;20694;-82
2021/08/11 12:28:37;;;;;;;5.20;2.20;;;23.30;99.90;;;;;;5032662;28;20167;-82
2021/08/11 12:31:05;;;;;;;3.92;2.00;;;23.40;99.90;;;;;;5031498;28;20587;-82
2021/08/11 12:33:34;;;;;;;3.53;1.88;;;23.40;99.90;;;;;;5033776;28;20160;-83
2021/08/11 12:36:00;;;;;;;3.50;2.20;;;23.40;99.90;;;;;;5033934;28;20184;-82
2021/08/11 12:38:29;;;;;;;5.13;2.03;;;23.40;99.90;;;;;;5034371;28;20168;-81
2021/08/11 12:40:55;;;;;;;3.75;2.17;;;23.50;99.90;;;;;;5038140;28;20713;-83
2021/08/11 12:43:21;;;;;;;1.67;1.58;;;23.60;99.90;;;;;;5033981;28;20229;-83
2021/08/11 12:45:47;;;;;;;2.67;2.10;;;23.60;99.90;;;;;;5032413;28;20188;-81
2021/08/11 12:48:30;;;;;;;2.47;1.80;;;23.50;99.90;;;;;;5033901;28;20171;-82
2021/08/11 12:50:59;;;;;;;2.72;2.05;;;23.30;99.90;;;;;;5033703;28;20170;-81
2021/08/11 12:53:38;;;;;;;2.47;2.28;;;23.30;99.90;;;;;;5034542;28;20520;-81